createdAt,value
2023-04-21T00:00:16.632Z,95.27
2023-04-21T00:01:11.887Z,95.25
2023-04-21T00:02:07.037Z,95.30
2023-04-21T00:03:02.107Z,95.28
2023-04-21T00:03:57.142Z,95.20
2023-04-21T00:04:52.193Z,95.22
2023-04-21T00:05:47.402Z,95.17
2023-04-21T00:06:42.302Z,95.17
2023-04-21T00:07:37.186Z,95.27
2023-04-21T00:08:32.258Z,95.25
2023-04-21T00:09:27.443Z,95.29
2023-04-21T00:10:22.387Z,95.33
2023-04-21T00:11:17.508Z,95.37
2023-04-21T00:12:12.621Z,95.38
2023-04-21T00:13:07.733Z,95.37
2023-04-21T00:14:02.795Z,95.39
2023-04-21T00:14:57.921Z,95.39
2023-04-21T00:15:52.987Z,95.37
2023-04-21T00:16:48.130Z,95.32
2023-04-21T00:17:43.110Z,95.33
2023-04-21T00:18:38.343Z,95.29
2023-04-21T00:19:33.424Z,95.25
2023-04-21T00:20:28.680Z,95.24
2023-04-21T00:21:23.795Z,95.24
2023-04-21T00:22:18.977Z,95.26
2023-04-21T00:23:13.912Z,95.29
2023-04-21T00:24:09.081Z,95.32
2023-04-21T00:25:04.179Z,95.32
2023-04-21T00:25:59.266Z,95.31
2023-04-21T00:26:54.407Z,95.33
2023-04-21T00:27:49.261Z,95.31
2023-04-21T00:28:44.349Z,95.27
2023-04-21T00:29:39.458Z,95.29
2023-04-21T00:30:34.483Z,95.31
2023-04-21T00:31:29.811Z,95.33
2023-04-21T00:32:24.627Z,95.32
2023-04-21T00:33:19.862Z,95.30
2023-04-21T00:34:15.090Z,95.26
2023-04-21T00:35:10.183Z,95.31
2023-04-21T00:36:05.358Z,95.28
2023-04-21T00:37:00.320Z,95.23
2023-04-21T00:37:55.559Z,95.24
2023-04-21T00:38:50.515Z,95.23
2023-04-21T00:39:45.614Z,95.26
2023-04-21T00:40:40.747Z,95.35
2023-04-21T00:41:36.130Z,95.30
2023-04-21T00:42:31.114Z,95.22
2023-04-21T00:43:26.331Z,95.16
2023-04-21T00:44:21.437Z,95.21
2023-04-21T00:45:16.552Z,95.18
2023-04-21T00:46:11.852Z,95.21
2023-04-21T00:47:06.780Z,95.27
2023-04-21T00:48:01.881Z,95.33
2023-04-21T00:48:56.863Z,95.32
2023-04-21T00:49:52.017Z,95.39
2023-04-21T00:50:46.951Z,95.42
2023-04-21T00:51:42.049Z,95.42
2023-04-21T00:52:37.060Z,95.40
2023-04-21T00:53:32.027Z,95.36
2023-04-21T00:54:27.161Z,95.34
2023-04-21T00:55:22.229Z,95.31
2023-04-21T00:57:42.963Z,95.73
2023-04-21T00:58:38.855Z,95.68
2023-04-21T00:59:33.994Z,95.60
2023-04-21T01:00:28.454Z,95.63
2023-04-21T01:01:23.874Z,95.63
2023-04-21T01:02:18.895Z,95.65
2023-04-21T01:03:14.162Z,95.64
2023-04-21T01:04:09.380Z,95.70
2023-04-21T01:05:04.376Z,95.72
2023-04-21T01:05:59.633Z,95.73
2023-04-21T01:06:54.821Z,95.66
2023-04-21T01:07:50.183Z,95.59
2023-04-21T01:08:45.268Z,95.54
2023-04-21T01:09:40.494Z,95.53
2023-04-21T01:10:35.712Z,95.55
2023-04-21T01:11:31.111Z,95.53
2023-04-21T01:12:26.181Z,95.55
2023-04-21T01:13:21.425Z,95.57
2023-04-21T01:14:16.630Z,95.57
2023-04-21T01:15:11.835Z,95.57
2023-04-21T01:16:07.097Z,95.59
2023-04-21T01:17:02.384Z,95.53
2023-04-21T01:17:57.608Z,95.52
2023-04-21T01:18:52.691Z,95.56
2023-04-21T01:19:47.903Z,95.56
2023-04-21T01:20:43.192Z,95.59
2023-04-21T01:21:38.257Z,95.66
2023-04-21T01:22:33.483Z,95.67
2023-04-21T01:23:28.685Z,95.69
2023-04-21T01:24:23.910Z,95.70
2023-04-21T01:25:19.110Z,95.67
2023-04-21T01:26:14.491Z,95.59
2023-04-21T01:27:09.578Z,95.54
2023-04-21T01:28:04.937Z,95.53
2023-04-21T01:29:00.032Z,95.50
2023-04-21T01:29:55.265Z,95.43
2023-04-21T01:30:50.655Z,95.44
2023-04-21T01:31:45.771Z,95.42
2023-04-21T01:32:40.958Z,95.37
2023-04-21T01:33:36.194Z,95.37
2023-04-21T01:34:31.376Z,95.36
2023-04-21T01:35:26.594Z,95.39
2023-04-21T01:36:21.968Z,95.41
2023-04-21T01:37:17.051Z,95.42
2023-04-21T01:38:12.371Z,95.42
2023-04-21T01:39:07.488Z,95.50
2023-04-21T01:40:02.726Z,95.57
2023-04-21T01:40:57.990Z,95.55
2023-04-21T01:41:53.195Z,95.55
2023-04-21T01:42:48.429Z,95.58
2023-04-21T01:43:43.637Z,95.56
2023-04-21T01:44:38.854Z,95.53
2023-04-21T01:45:34.103Z,95.51
2023-04-21T01:46:29.416Z,95.53
2023-04-21T01:47:24.479Z,95.52
2023-04-21T01:48:19.833Z,95.49
2023-04-21T01:49:14.919Z,95.50
2023-04-21T01:50:10.158Z,95.49
2023-04-21T01:51:05.410Z,95.50
2023-04-21T01:52:00.669Z,95.46
2023-04-21T01:52:55.862Z,95.44
2023-04-21T01:53:51.101Z,95.44
2023-04-21T01:54:46.422Z,95.44
2023-04-21T01:55:41.532Z,95.46
2023-04-21T01:56:36.938Z,95.43
2023-04-21T01:57:32.006Z,95.46
2023-04-21T01:58:27.328Z,95.47
2023-04-21T01:59:22.470Z,95.41
2023-04-21T02:00:17.672Z,95.36
2023-04-21T02:01:12.944Z,95.29
2023-04-21T02:02:08.293Z,95.24
2023-04-21T02:03:03.470Z,95.20
2023-04-21T02:03:58.734Z,95.13
2023-04-21T02:04:53.743Z,95.11
2023-04-21T02:05:48.915Z,95.13
2023-04-21T02:06:44.213Z,95.15
2023-04-21T02:07:39.304Z,95.18
2023-04-21T02:08:34.657Z,95.19
2023-04-21T02:09:29.740Z,95.19
2023-04-21T02:10:24.969Z,95.24
2023-04-21T02:11:20.192Z,95.28
2023-04-21T02:12:15.595Z,95.30
2023-04-21T02:13:10.531Z,95.35
2023-04-21T02:14:05.781Z,95.45
2023-04-21T02:15:00.974Z,95.50
2023-04-21T02:16:09.647Z,95.47
2023-04-21T02:16:52.481Z,95.49
2023-04-21T02:17:46.730Z,95.54
2023-04-21T02:18:41.792Z,95.55
2023-04-21T02:19:36.934Z,95.58
2023-04-21T02:20:32.129Z,95.62
2023-04-21T02:21:27.378Z,95.74
2023-04-21T02:22:22.607Z,95.81
2023-04-21T02:23:17.821Z,95.86
2023-04-21T02:24:13.047Z,95.94
2023-04-21T02:25:08.250Z,95.99
2023-04-21T02:26:03.459Z,96.04
2023-04-21T02:26:58.861Z,96.19
2023-04-21T02:27:53.913Z,96.28
2023-04-21T02:28:49.292Z,96.38
2023-04-21T02:29:44.376Z,96.46
2023-04-21T02:30:41.461Z,96.54
2023-04-21T02:31:43.146Z,96.59
2023-04-21T02:32:31.192Z,96.61
2023-04-21T02:33:25.296Z,96.63
2023-04-21T02:34:20.435Z,96.70
2023-04-21T02:35:15.646Z,96.79
2023-04-21T02:36:10.969Z,96.83
2023-04-21T02:37:06.033Z,96.90
2023-04-21T02:38:01.392Z,96.95
2023-04-21T02:38:56.486Z,97.04
2023-04-21T02:39:51.698Z,97.08
2023-04-21T02:40:46.914Z,97.14
2023-04-21T02:41:42.304Z,97.13
2023-04-21T02:42:37.369Z,97.14
2023-04-21T02:43:32.619Z,97.14
2023-04-21T02:44:27.834Z,97.14
2023-04-21T02:45:23.054Z,97.12
2023-04-21T02:46:18.310Z,97.11
2023-04-21T02:47:13.538Z,97.11
2023-04-21T02:48:08.874Z,97.15
2023-04-21T02:49:03.981Z,97.17
2023-04-21T02:49:59.180Z,97.17
2023-04-21T02:50:54.441Z,97.15
2023-04-21T02:51:49.813Z,97.14
2023-04-21T02:52:44.918Z,97.10
2023-04-21T02:53:40.138Z,97.11
2023-04-21T02:54:35.371Z,97.13
2023-04-21T02:55:30.595Z,97.15
2023-04-21T02:56:25.998Z,97.20
2023-04-21T02:57:21.065Z,97.20
2023-04-21T02:58:16.422Z,97.21
2023-04-21T02:59:11.513Z,97.22
2023-04-21T03:00:06.759Z,97.22
2023-04-21T03:01:02.008Z,97.26
2023-04-21T03:01:57.378Z,97.25
2023-04-21T03:02:52.638Z,97.28
2023-04-21T03:03:47.705Z,97.31
2023-04-21T03:04:42.967Z,97.32
2023-04-21T03:05:38.138Z,97.36
2023-04-21T03:06:33.527Z,97.34
2023-04-21T03:07:28.622Z,97.33
2023-04-21T03:08:23.930Z,97.29
2023-04-21T03:09:19.306Z,97.26
2023-04-21T03:10:14.300Z,97.26
2023-04-21T03:11:09.554Z,97.30
2023-04-21T03:12:04.784Z,97.37
2023-04-21T03:12:59.978Z,97.42
2023-04-21T03:13:55.250Z,97.47
2023-04-21T03:14:50.455Z,97.47
2023-04-21T03:15:45.686Z,97.51
2023-04-21T03:16:41.146Z,97.51
2023-04-21T03:17:36.134Z,97.55
2023-04-21T03:18:31.428Z,97.58
2023-04-21T03:19:26.551Z,97.60
2023-04-21T03:20:21.768Z,97.63
2023-04-21T03:21:17.033Z,97.62
2023-04-21T03:22:12.253Z,97.58
2023-04-21T03:23:07.478Z,97.55
2023-04-21T03:24:02.732Z,97.55
2023-04-21T03:24:57.935Z,97.54
2023-04-21T03:25:53.155Z,97.50
2023-04-21T03:26:48.499Z,97.55
2023-04-21T03:27:43.640Z,97.52
2023-04-21T03:28:39.004Z,97.51
2023-04-21T03:29:34.159Z,97.46
2023-04-21T03:30:29.468Z,97.51
2023-04-21T03:31:24.807Z,97.54
2023-04-21T03:32:20.051Z,97.58
2023-04-21T03:33:15.054Z,97.61
2023-04-21T03:34:10.313Z,97.64
2023-04-21T03:35:05.524Z,97.64
2023-04-21T03:36:00.889Z,97.60
2023-04-21T03:36:56.145Z,97.58
2023-04-21T03:37:51.231Z,97.60
2023-04-21T03:38:46.701Z,97.63
2023-04-21T03:39:41.679Z,97.63
2023-04-21T03:40:36.863Z,97.61
2023-04-21T03:41:32.280Z,97.58
2023-04-21T03:42:27.350Z,97.61
2023-04-21T03:43:22.562Z,97.60
2023-04-21T03:44:17.778Z,97.66
2023-04-21T03:45:13.040Z,97.65
2023-04-21T03:46:08.366Z,97.67
2023-04-21T03:47:04.580Z,97.77
2023-04-21T03:47:59.865Z,97.82
2023-04-21T03:48:55.035Z,97.83
2023-04-21T03:49:50.279Z,97.82
2023-04-21T03:50:45.508Z,97.76
2023-04-21T03:51:40.647Z,97.73
2023-04-21T03:52:35.810Z,97.74
2023-04-21T03:53:30.752Z,97.71
2023-04-21T03:54:25.888Z,97.71
2023-04-21T03:55:20.949Z,97.68
2023-04-21T03:56:16.083Z,97.70
2023-04-21T03:57:11.177Z,97.69
2023-04-21T03:58:06.177Z,97.76
2023-04-21T03:59:01.147Z,97.79
2023-04-21T03:59:56.273Z,97.81
2023-04-21T04:00:51.678Z,97.79
2023-04-21T04:01:46.905Z,97.73
2023-04-21T04:02:42.020Z,97.69
2023-04-21T04:03:37.128Z,97.68
2023-04-21T04:04:32.515Z,97.66
2023-04-21T04:05:27.176Z,97.62
2023-04-21T04:06:22.201Z,97.56
2023-04-21T04:07:17.250Z,97.57
2023-04-21T04:08:12.257Z,97.51
2023-04-21T04:09:07.392Z,97.49
2023-04-21T04:10:02.397Z,97.42
2023-04-21T04:10:57.543Z,97.38
2023-04-21T04:11:52.640Z,97.41
2023-04-21T04:12:47.832Z,97.47
2023-04-21T04:13:42.870Z,97.51
2023-04-21T04:14:38.004Z,97.57
2023-04-21T04:15:32.973Z,97.60
2023-04-21T04:16:28.084Z,97.67
2023-04-21T04:17:27.396Z,97.76
2023-04-21T04:18:22.181Z,97.82
2023-04-21T04:19:17.440Z,97.89
2023-04-21T04:20:12.307Z,97.96
2023-04-21T04:21:08.274Z,98.05
2023-04-21T04:22:03.580Z,98.08
2023-04-21T04:22:58.966Z,98.13
2023-04-21T04:23:54.317Z,98.15
2023-04-21T04:24:50.081Z,98.19
2023-04-21T04:25:45.448Z,98.18
2023-04-21T04:26:40.779Z,98.17
2023-04-21T04:27:36.318Z,98.17
2023-04-21T04:28:31.349Z,98.14
2023-04-21T04:29:26.686Z,98.15
2023-04-21T04:30:21.973Z,98.11
2023-04-21T04:31:17.431Z,98.10
2023-04-21T04:32:12.841Z,98.12
2023-04-21T04:33:08.175Z,98.08
2023-04-21T04:34:03.411Z,98.11
2023-04-21T04:34:58.876Z,98.14
2023-04-21T04:35:54.228Z,98.14
2023-04-21T04:36:49.632Z,98.13
2023-04-21T04:37:45.094Z,98.15
2023-04-21T04:38:40.225Z,98.14
2023-04-21T04:39:35.642Z,98.12
2023-04-21T04:40:31.081Z,98.11
2023-04-21T04:41:26.339Z,98.06
2023-04-21T04:42:21.808Z,98.00
2023-04-21T04:43:17.080Z,97.98
2023-04-21T04:44:12.114Z,98.04
2023-04-21T04:45:07.168Z,98.02
2023-04-21T04:46:02.277Z,98.03
2023-04-21T04:46:57.481Z,98.05
2023-04-21T04:47:52.419Z,98.05
2023-04-21T04:48:47.380Z,98.00
2023-04-21T04:49:42.404Z,97.98
2023-04-21T04:50:37.436Z,97.98
2023-04-21T04:51:38.488Z,97.98
2023-04-21T04:52:34.185Z,97.99
2023-04-21T04:53:29.369Z,97.98
2023-04-21T04:54:25.075Z,98.01
2023-04-21T04:55:20.539Z,97.99
2023-04-21T04:56:15.785Z,98.01
2023-04-21T04:57:12.336Z,98.01
2023-04-21T04:58:07.594Z,97.99
2023-04-21T04:59:03.442Z,97.96
2023-04-21T04:59:58.774Z,97.96
2023-04-21T05:00:54.200Z,97.95
2023-04-21T05:01:49.944Z,97.88
2023-04-21T05:02:45.502Z,97.84
2023-04-21T05:03:41.277Z,97.81
2023-04-21T05:04:36.662Z,97.78
2023-04-21T05:05:31.961Z,97.79
2023-04-21T05:06:27.820Z,97.79
2023-04-21T05:07:23.404Z,97.76
2023-04-21T05:08:18.811Z,97.73
2023-04-21T05:09:14.980Z,97.71
2023-04-21T05:10:10.389Z,97.69
2023-04-21T05:11:06.255Z,97.69
2023-04-21T05:12:02.001Z,97.67
2023-04-21T05:12:57.330Z,97.70
2023-04-21T05:13:53.169Z,97.72
2023-04-21T05:14:48.479Z,97.68
2023-04-21T05:15:44.429Z,97.73
2023-04-21T05:16:39.665Z,97.75
2023-04-21T05:17:35.238Z,97.77
2023-04-21T05:18:30.725Z,97.80
2023-04-21T05:19:26.219Z,97.78
2023-04-21T05:20:21.684Z,97.72
2023-04-21T05:21:17.888Z,97.67
2023-04-21T05:22:13.263Z,97.64
2023-04-21T05:23:09.212Z,97.60
2023-04-21T05:24:04.521Z,97.54
2023-04-21T05:25:00.011Z,97.52
2023-04-21T05:25:55.781Z,97.48
2023-04-21T05:26:51.303Z,97.50
2023-04-21T05:27:47.205Z,97.51
2023-04-21T05:28:42.459Z,97.48
2023-04-21T05:29:37.787Z,97.52
2023-04-21T05:30:33.590Z,97.52
2023-04-21T05:31:28.938Z,97.46
2023-04-21T05:32:24.663Z,97.39
2023-04-21T05:33:20.727Z,97.39
2023-04-21T05:34:16.207Z,97.43
2023-04-21T05:35:12.076Z,97.47
2023-04-21T05:36:07.564Z,97.52
2023-04-21T05:37:02.923Z,97.49
2023-04-21T05:37:58.737Z,97.47
2023-04-21T05:38:54.119Z,97.45
2023-04-21T05:39:50.040Z,97.44
2023-04-21T05:40:45.234Z,97.46
2023-04-21T05:41:40.786Z,97.41
2023-04-21T05:42:36.483Z,97.40
2023-04-21T05:43:31.829Z,97.39
2023-04-21T05:44:27.293Z,97.37
2023-04-21T05:45:23.509Z,97.40
2023-04-21T05:46:18.923Z,97.36
2023-04-21T05:47:14.707Z,97.34
2023-04-21T05:48:12.937Z,97.31
2023-04-21T05:49:05.502Z,97.33
2023-04-21T05:50:00.464Z,97.32
2023-04-21T05:50:55.540Z,97.29
2023-04-21T05:51:50.527Z,97.31
2023-04-21T05:52:45.611Z,97.32
2023-04-21T05:53:40.779Z,97.33
2023-04-21T05:54:35.712Z,97.32
2023-04-21T05:55:30.681Z,97.35
2023-04-21T05:56:25.721Z,97.34
2023-04-21T05:57:20.730Z,97.31
2023-04-21T05:58:15.833Z,97.28
2023-04-21T05:59:10.920Z,97.25
2023-04-21T06:00:05.982Z,97.22
2023-04-21T06:01:04.884Z,97.25
2023-04-21T06:02:00.068Z,97.25
2023-04-21T06:02:55.190Z,97.28
2023-04-21T06:03:50.734Z,97.26
2023-04-21T06:04:45.361Z,97.27
2023-04-21T06:05:40.316Z,97.22
2023-04-21T06:06:35.285Z,97.19
2023-04-21T06:07:30.317Z,97.16
2023-04-21T06:08:25.336Z,97.04
2023-04-21T06:09:20.548Z,97.01
2023-04-21T06:10:15.829Z,96.99
2023-04-21T06:11:11.304Z,96.96
2023-04-21T06:12:07.245Z,96.98
2023-04-21T06:13:02.795Z,96.94
2023-04-21T06:13:58.456Z,96.87
2023-04-21T06:14:54.019Z,96.85
2023-04-21T06:15:49.439Z,96.84
2023-04-21T06:16:44.944Z,96.83
2023-04-21T06:17:40.329Z,96.84
2023-04-21T06:18:35.347Z,96.85
2023-04-21T06:19:30.558Z,96.70
2023-04-21T06:20:25.470Z,96.67
2023-04-21T06:21:20.485Z,96.61
2023-04-21T06:22:15.520Z,96.55
2023-04-21T06:23:10.486Z,96.49
2023-04-21T06:24:05.522Z,96.45
2023-04-21T06:25:00.770Z,96.40
2023-04-21T06:25:55.517Z,96.37
2023-04-21T06:26:50.483Z,96.35
2023-04-21T06:27:45.524Z,96.30
2023-04-21T06:28:40.480Z,96.29
2023-04-21T06:29:35.817Z,96.23
2023-04-21T06:30:30.831Z,96.13
2023-04-21T06:31:25.992Z,96.06
2023-04-21T06:32:21.013Z,96.08
2023-04-21T06:33:16.259Z,96.06
2023-04-21T06:34:11.609Z,96.04
2023-04-21T06:35:07.069Z,96.01
2023-04-21T06:36:03.005Z,95.91
2023-04-21T06:36:58.545Z,95.79
2023-04-21T06:37:54.225Z,95.73
2023-04-21T06:38:49.771Z,95.71
2023-04-21T06:39:45.318Z,95.68
2023-04-21T06:40:41.218Z,95.62
2023-04-21T06:41:36.587Z,95.56
2023-04-21T06:42:32.180Z,95.55
2023-04-21T06:43:28.310Z,95.55
2023-04-21T06:44:23.747Z,95.54
2023-04-21T06:45:19.542Z,95.50
2023-04-21T06:46:14.989Z,95.50
2023-04-21T06:47:10.420Z,95.45
2023-04-21T06:48:06.147Z,95.44
2023-04-21T06:49:01.613Z,95.46
2023-04-21T06:49:57.702Z,95.47
2023-04-21T06:50:52.861Z,95.43
2023-04-21T06:51:48.266Z,95.36
2023-04-21T06:52:43.967Z,95.29
2023-04-21T06:53:39.496Z,95.27
2023-04-21T06:54:35.015Z,95.31
2023-04-21T06:55:31.155Z,95.36
2023-04-21T06:57:51.132Z,95.72
2023-04-21T06:58:46.476Z,95.57
2023-04-21T06:59:42.031Z,95.57
2023-04-21T07:00:37.272Z,95.57
2023-04-21T07:01:32.864Z,95.54
2023-04-21T07:02:28.497Z,95.45
2023-04-21T07:03:23.841Z,95.36
2023-04-21T07:04:19.157Z,95.29
2023-04-21T07:05:14.536Z,95.26
2023-04-21T07:06:09.911Z,95.18
2023-04-21T07:07:05.616Z,94.99
2023-04-21T07:08:00.963Z,94.84
2023-04-21T07:08:56.380Z,94.78
2023-04-21T07:09:51.954Z,94.70
2023-04-21T07:10:47.222Z,94.57
2023-04-21T07:11:42.599Z,94.50
2023-04-21T07:12:38.122Z,94.44
2023-04-21T07:13:33.618Z,94.44
2023-04-21T07:14:29.191Z,94.43
2023-04-21T07:15:24.513Z,94.53
2023-04-21T07:16:20.223Z,94.59
2023-04-21T07:17:15.599Z,94.54
2023-04-21T07:18:11.155Z,94.50
2023-04-21T07:19:06.661Z,94.36
2023-04-21T07:20:02.090Z,94.14
2023-04-21T07:20:57.412Z,93.99
2023-04-21T07:21:53.122Z,93.96
2023-04-21T07:22:48.399Z,94.04
2023-04-21T07:23:43.791Z,94.12
2023-04-21T07:24:39.220Z,94.19
2023-04-21T07:25:34.566Z,94.22
2023-04-21T07:26:30.242Z,94.29
2023-04-21T07:27:25.616Z,94.25
2023-04-21T07:28:21.157Z,94.23
2023-04-21T07:29:16.734Z,94.27
2023-04-21T07:30:12.124Z,94.05
2023-04-21T07:31:07.523Z,93.91
2023-04-21T07:32:02.916Z,93.76
2023-04-21T07:32:58.333Z,93.79
2023-04-21T07:33:53.893Z,93.87
2023-04-21T07:34:49.084Z,93.90
2023-04-21T07:35:44.506Z,94.00
2023-04-21T07:36:39.884Z,94.08
2023-04-21T07:37:35.576Z,94.19
2023-04-21T07:38:30.946Z,94.29
2023-04-21T07:39:26.484Z,94.22
2023-04-21T07:40:22.007Z,94.29
2023-04-21T07:41:17.440Z,94.43
2023-04-21T07:42:12.906Z,94.39
2023-04-21T07:43:08.447Z,94.29
2023-04-21T07:44:03.866Z,94.06
2023-04-21T07:44:59.574Z,93.96
2023-04-21T07:45:54.993Z,93.80
2023-04-21T07:46:50.422Z,93.84
2023-04-21T07:47:45.837Z,93.90
2023-04-21T07:48:41.342Z,93.90
2023-04-21T07:49:36.622Z,94.00
2023-04-21T07:50:32.011Z,93.83
2023-04-21T07:51:27.418Z,93.62
2023-04-21T07:52:22.941Z,93.54
2023-04-21T07:53:18.434Z,93.40
2023-04-21T07:54:13.858Z,93.27
2023-04-21T07:55:09.282Z,93.13
2023-04-21T07:56:05.360Z,92.76
2023-04-21T07:57:00.718Z,92.70
2023-04-21T07:57:56.255Z,92.48
2023-04-21T07:58:51.614Z,92.39
2023-04-21T07:59:47.217Z,92.51
2023-04-21T08:00:42.045Z,92.60
2023-04-21T08:01:37.126Z,92.68
2023-04-21T08:02:32.236Z,92.80
2023-04-21T08:03:27.495Z,92.83
2023-04-21T08:04:22.501Z,92.75
2023-04-21T08:05:17.484Z,92.74
2023-04-21T08:07:38.150Z,93.27
2023-04-21T08:08:33.457Z,93.01
2023-04-21T08:09:30.642Z,92.68
2023-04-21T08:10:24.603Z,92.37
2023-04-21T08:11:19.974Z,92.20
2023-04-21T08:12:15.526Z,92.08
2023-04-21T08:13:10.991Z,91.67
2023-04-21T08:14:06.715Z,91.55
2023-04-21T08:15:02.036Z,91.38
2023-04-21T08:15:57.568Z,91.36
2023-04-21T08:16:54.648Z,91.53
2023-04-21T08:17:48.699Z,91.64
2023-04-21T08:18:44.104Z,91.69
2023-04-21T08:19:39.841Z,91.62
2023-04-21T08:20:35.237Z,91.28
2023-04-21T08:21:31.456Z,91.32
2023-04-21T08:22:26.142Z,91.39
2023-04-21T08:23:21.621Z,91.47
2023-04-21T08:24:17.107Z,91.49
2023-04-21T08:25:12.487Z,91.53
2023-04-21T08:26:08.019Z,91.59
2023-04-21T08:27:03.361Z,91.59
2023-04-21T08:27:58.857Z,91.56
2023-04-21T08:28:54.418Z,91.39
2023-04-21T08:29:49.753Z,91.01
2023-04-21T08:30:45.293Z,90.82
2023-04-21T08:31:40.640Z,90.74
2023-04-21T08:32:36.061Z,90.85
2023-04-21T08:33:31.469Z,90.98
2023-04-21T08:34:27.905Z,91.11
2023-04-21T08:35:22.415Z,90.96
2023-04-21T08:36:28.511Z,90.79
2023-04-21T08:37:14.454Z,90.68
2023-04-21T08:38:09.000Z,90.39
2023-04-21T08:39:04.397Z,90.21
2023-04-21T08:40:00.012Z,90.19
2023-04-21T08:40:55.299Z,90.37
2023-04-21T08:41:50.773Z,90.53
2023-04-21T08:42:46.348Z,90.69
2023-04-21T08:43:41.658Z,90.54
2023-04-21T08:44:37.132Z,90.36
2023-04-21T08:45:32.894Z,90.32
2023-04-21T08:46:28.455Z,90.35
2023-04-21T08:47:23.809Z,90.46
2023-04-21T08:48:19.207Z,90.04
2023-04-21T08:49:14.794Z,89.82
2023-04-21T08:50:10.379Z,89.73
2023-04-21T08:51:05.864Z,88.88
2023-04-21T08:52:01.299Z,88.94
2023-04-21T08:52:56.821Z,89.45
2023-04-21T08:53:52.341Z,89.95
2023-04-21T08:54:47.882Z,90.29
2023-04-21T08:55:43.227Z,90.51
2023-04-21T08:56:38.709Z,90.54
2023-04-21T08:57:34.212Z,90.84
2023-04-21T08:58:29.572Z,90.52
2023-04-21T08:59:24.887Z,90.06
2023-04-21T09:00:20.587Z,89.72
2023-04-21T09:01:15.791Z,89.62
2023-04-21T09:02:11.364Z,89.79
2023-04-21T09:03:13.216Z,89.89
2023-04-21T09:04:03.499Z,90.17
2023-04-21T09:04:58.206Z,90.22
2023-04-21T09:05:53.576Z,90.15
2023-04-21T09:06:49.015Z,90.03
2023-04-21T09:07:44.533Z,90.07
2023-04-21T09:08:40.126Z,90.02
2023-04-21T09:09:35.490Z,89.92
2023-04-21T09:10:30.981Z,90.05
2023-04-21T09:11:26.484Z,90.28
2023-04-21T09:12:21.963Z,90.26
2023-04-21T09:13:17.338Z,90.26
2023-04-21T09:14:12.821Z,90.22
2023-04-21T09:15:08.335Z,90.24
2023-04-21T09:16:05.164Z,89.84
2023-04-21T09:16:59.175Z,89.10
2023-04-21T09:17:54.549Z,88.88
2023-04-21T09:18:50.004Z,89.07
2023-04-21T09:19:45.541Z,89.32
2023-04-21T09:20:41.075Z,89.48
2023-04-21T09:21:36.654Z,89.62
2023-04-21T09:22:32.143Z,89.75
2023-04-21T09:23:27.514Z,89.45
2023-04-21T09:24:23.012Z,89.27
2023-04-21T09:25:18.589Z,89.41
2023-04-21T09:26:13.940Z,88.95
2023-04-21T09:27:09.397Z,89.01
2023-04-21T09:28:05.164Z,89.00
2023-04-21T09:29:00.650Z,88.29
2023-04-21T09:29:56.141Z,87.72
2023-04-21T09:30:51.841Z,87.51
2023-04-21T09:31:46.936Z,87.23
2023-04-21T09:32:42.401Z,87.57
2023-04-21T09:33:46.107Z,88.16
2023-04-21T09:34:34.210Z,88.65
2023-04-21T09:35:28.818Z,88.61
2023-04-21T09:36:24.167Z,88.57
2023-04-21T09:37:19.689Z,88.40
2023-04-21T09:38:15.320Z,88.10
2023-04-21T09:40:06.103Z,87.88
2023-04-21T09:41:01.636Z,87.77
2023-04-21T09:41:57.136Z,87.79
2023-04-21T09:42:52.603Z,87.54
2023-04-21T09:43:47.967Z,87.19
2023-04-21T09:44:50.900Z,87.10
2023-04-21T09:45:40.843Z,87.00
2023-04-21T09:46:34.252Z,87.18
2023-04-21T09:47:29.782Z,87.03
2023-04-21T09:48:25.390Z,87.14
2023-04-21T09:49:20.859Z,87.11
2023-04-21T09:50:17.007Z,87.04
2023-04-21T09:51:30.791Z,86.67
2023-04-21T09:52:18.670Z,86.59
2023-04-21T09:53:03.826Z,86.77
2023-04-21T09:53:58.359Z,86.88
2023-04-21T09:54:53.744Z,86.93
2023-04-21T09:55:49.221Z,86.59
2023-04-21T09:56:44.681Z,85.89
2023-04-21T09:57:40.060Z,85.22
2023-04-21T09:58:35.284Z,85.15
2023-04-21T09:59:30.792Z,85.12
2023-04-21T10:00:26.263Z,85.04
2023-04-21T10:01:21.854Z,85.17
2023-04-21T10:02:17.455Z,85.34
2023-04-21T10:03:12.927Z,85.65
2023-04-21T10:04:08.329Z,85.89
2023-04-21T10:05:04.036Z,85.93
2023-04-21T10:05:59.437Z,85.78
2023-04-21T10:06:54.881Z,85.18
2023-04-21T10:07:50.263Z,84.12
2023-04-21T10:08:45.590Z,83.86
2023-04-21T10:09:40.987Z,83.50
2023-04-21T10:10:36.570Z,83.20
2023-04-21T10:11:32.121Z,81.79
2023-04-21T10:12:27.427Z,80.10
2023-04-21T10:13:22.886Z,79.28
2023-04-21T10:14:18.652Z,80.45
2023-04-21T10:15:13.671Z,80.58
2023-04-21T10:16:09.172Z,79.71
2023-04-21T10:17:04.720Z,79.13
2023-04-21T10:18:00.067Z,77.70
2023-04-21T10:18:55.290Z,78.24
2023-04-21T10:19:50.760Z,78.03
2023-04-21T10:20:46.315Z,77.69
2023-04-21T10:21:41.672Z,78.05
2023-04-21T10:22:37.153Z,79.31
2023-04-21T10:23:32.658Z,78.88
2023-04-21T10:24:28.110Z,78.14
2023-04-21T10:25:23.566Z,77.64
2023-04-21T10:26:18.980Z,78.51
2023-04-21T10:27:14.514Z,78.80
2023-04-21T10:28:09.912Z,80.28
2023-04-21T10:29:05.273Z,79.68
2023-04-21T10:30:00.731Z,77.96
2023-04-21T10:30:56.200Z,77.02
2023-04-21T10:31:51.715Z,74.89
2023-04-21T10:32:47.282Z,73.15
2023-04-21T10:33:42.625Z,72.51
2023-04-21T10:34:38.148Z,73.41
2023-04-21T10:35:33.496Z,73.79
2023-04-21T10:36:28.960Z,74.76
2023-04-21T10:37:24.400Z,74.63
2023-04-21T10:38:19.826Z,75.27
2023-04-21T10:39:15.134Z,73.72
2023-04-21T10:40:10.564Z,73.40
2023-04-21T10:41:06.005Z,74.15
2023-04-21T10:42:01.509Z,74.45
2023-04-21T10:42:56.954Z,74.74
2023-04-21T10:43:52.528Z,73.96
2023-04-21T10:44:48.043Z,74.50
2023-04-21T10:45:43.446Z,74.15
2023-04-21T10:46:38.972Z,75.08
2023-04-21T10:47:34.639Z,75.03
2023-04-21T10:48:29.913Z,74.77
2023-04-21T10:49:25.368Z,74.02
2023-04-21T10:50:20.795Z,73.17
2023-04-21T10:51:16.196Z,72.56
2023-04-21T10:52:11.545Z,72.30
2023-04-21T10:53:06.978Z,69.26
2023-04-21T10:54:02.443Z,69.78
2023-04-21T10:54:57.914Z,71.80
2023-04-21T10:55:53.554Z,71.09
2023-04-21T10:56:48.984Z,71.47
2023-04-21T10:57:44.456Z,71.04
2023-04-21T10:58:39.831Z,70.58
2023-04-21T10:59:35.293Z,70.79
2023-04-21T11:00:30.696Z,70.75
2023-04-21T11:01:26.178Z,70.15
2023-04-21T11:02:21.695Z,69.59
2023-04-21T11:03:17.112Z,69.83
2023-04-21T11:04:12.489Z,70.22
2023-04-21T11:05:07.930Z,68.50
2023-04-21T11:06:03.120Z,67.45
2023-04-21T11:06:58.580Z,67.59
2023-04-21T11:07:54.071Z,67.81
2023-04-21T11:08:49.490Z,67.72
2023-04-21T11:09:45.000Z,67.12
2023-04-21T11:10:40.422Z,66.70
2023-04-21T11:11:35.901Z,67.98
2023-04-21T11:12:31.368Z,66.48
2023-04-21T11:13:26.739Z,66.01
2023-04-21T11:14:22.246Z,66.26
2023-04-21T11:15:17.535Z,66.68
2023-04-21T11:16:13.137Z,68.15
2023-04-21T11:17:08.678Z,69.19
2023-04-21T11:18:04.236Z,70.38
2023-04-21T11:18:59.584Z,70.81
2023-04-21T11:19:55.012Z,72.44
2023-04-21T11:20:50.379Z,71.68
2023-04-21T11:21:45.990Z,71.26
2023-04-21T11:22:41.373Z,71.34
2023-04-21T11:23:36.774Z,72.10
2023-04-21T11:24:32.206Z,71.85
2023-04-21T11:25:27.632Z,70.05
2023-04-21T11:26:23.017Z,69.87
2023-04-21T11:27:18.451Z,69.47
2023-04-21T11:28:13.803Z,70.18
2023-04-21T11:29:09.312Z,70.96
2023-04-21T11:30:04.650Z,68.77
2023-04-21T11:31:00.054Z,67.46
2023-04-21T11:31:55.386Z,67.82
2023-04-21T11:32:50.892Z,67.55
2023-04-21T11:33:46.326Z,66.82
2023-04-21T11:34:41.767Z,66.26
2023-04-21T11:35:37.225Z,65.67
2023-04-21T11:36:32.671Z,63.79
2023-04-21T11:37:28.386Z,64.15
2023-04-21T11:38:23.897Z,63.91
2023-04-21T11:39:21.337Z,63.52
2023-04-21T11:40:14.829Z,63.40
2023-04-21T11:41:10.575Z,63.76
2023-04-21T11:42:05.850Z,64.90
2023-04-21T11:43:01.365Z,65.99
2023-04-21T11:43:56.727Z,65.51
2023-04-21T11:44:52.213Z,64.95
2023-04-21T11:45:47.597Z,64.19
2023-04-21T11:46:42.983Z,62.52
2023-04-21T11:47:38.676Z,63.99
2023-04-21T11:48:33.871Z,65.17
2023-04-21T11:49:29.285Z,65.28
2023-04-21T11:50:24.772Z,64.15
2023-04-21T11:51:22.154Z,64.35
2023-04-21T11:52:15.674Z,63.60
2023-04-21T11:53:10.998Z,62.47
2023-04-21T11:54:06.347Z,62.85
2023-04-21T11:55:01.882Z,63.46
2023-04-21T11:55:57.543Z,62.26
2023-04-21T11:56:52.926Z,61.96
2023-04-21T11:57:48.124Z,61.57